createdAt,value
2018-05-26T00:00:51.159Z,17.90
2018-05-26T00:03:20.163Z,17.10
2018-05-26T00:05:47.608Z,17.03
2018-05-26T00:08:16.931Z,259.10
2018-05-26T00:10:44.387Z,64.70
2018-05-26T00:13:13.227Z,18.90
2018-05-26T00:15:41.533Z,18.90
2018-05-26T00:18:09.440Z,18.10
2018-05-26T00:20:36.884Z,19.20
2018-05-26T00:23:07.911Z,91.17
2018-05-26T00:25:35.367Z,34.97
2018-05-26T00:28:03.702Z,41.53
2018-05-26T00:30:31.250Z,30.40
2018-05-26T00:33:00.092Z,144.20
2018-05-26T00:35:27.761Z,28.00
2018-05-26T00:37:58.517Z,20.13
2018-05-26T00:40:25.967Z,18.77
2018-05-26T00:42:55.698Z,19.80
2018-05-26T00:45:23.211Z,19.60
2018-05-26T00:47:52.430Z,18.87
2018-05-26T00:50:19.971Z,18.50
2018-05-26T00:52:49.713Z,18.80
2018-05-26T00:55:17.158Z,19.70
2018-05-26T00:57:45.902Z,18.27
2018-05-26T01:00:14.228Z,18.33
2018-05-26T01:02:41.675Z,19.63
2018-05-26T01:05:09.166Z,18.70
2018-05-26T01:07:36.613Z,19.20
2018-05-26T01:10:04.089Z,21.30
2018-05-26T01:12:31.557Z,20.20
2018-05-26T01:18:30.072Z,20.67
2018-05-26T01:20:58.408Z,17.80
2018-05-26T01:23:25.942Z,19.60
2018-05-26T01:25:53.631Z,19.17
2018-05-26T01:28:22.939Z,20.60
2018-05-26T01:30:50.386Z,20.33
2018-05-26T01:33:20.217Z,20.03
2018-05-26T01:35:47.690Z,19.80
2018-05-26T01:38:16.914Z,20.30
2018-05-26T01:40:44.392Z,20.97
2018-05-26T01:43:12.988Z,22.47
2018-05-26T01:45:40.473Z,20.57
2018-05-26T01:48:07.928Z,22.17
2018-05-26T01:50:35.390Z,20.90
2018-05-26T01:53:02.843Z,21.10
2018-05-26T01:55:30.456Z,21.07
2018-05-26T01:57:57.981Z,21.70
2018-05-26T02:00:25.489Z,22.20
2018-05-26T02:02:52.950Z,21.47
2018-05-26T02:05:20.437Z,22.60
2018-05-26T02:07:47.890Z,22.43
2018-05-26T02:10:15.362Z,22.60
2018-05-26T02:12:42.815Z,22.00
2018-05-26T02:15:10.895Z,21.43
2018-05-26T02:17:38.354Z,21.80
2018-05-26T02:20:08.305Z,21.50
2018-05-26T02:22:35.755Z,22.17
2018-05-26T02:25:04.110Z,21.93
2018-05-26T02:27:31.601Z,20.93
2018-05-26T02:30:02.276Z,22.30
2018-05-26T02:32:29.723Z,20.93
2018-05-26T02:34:57.552Z,21.13
2018-05-26T02:37:25.112Z,21.30
2018-05-26T02:39:54.176Z,20.50
2018-05-26T02:42:22.379Z,20.47
2018-05-26T02:44:52.634Z,21.37
2018-05-26T02:47:20.097Z,21.53
2018-05-26T02:49:48.343Z,20.43
2018-05-26T02:52:15.782Z,20.00
2018-05-26T02:54:44.052Z,20.17
2018-05-26T02:57:11.771Z,19.93
2018-05-26T02:59:41.962Z,21.17
2018-05-26T03:02:09.624Z,19.60
2018-05-26T03:04:42.943Z,19.07
2018-05-26T03:07:16.011Z,19.93
2018-05-26T03:09:49.376Z,20.00
2018-05-26T03:12:24.569Z,19.80
2018-05-26T03:14:51.521Z,20.00
2018-05-26T03:17:20.872Z,20.10
2018-05-26T03:19:48.329Z,18.63
2018-05-26T03:22:15.836Z,18.77
2018-05-26T03:24:43.342Z,18.80
2018-05-26T03:27:10.850Z,18.43
2018-05-26T03:29:38.291Z,18.83
2018-05-26T03:32:08.002Z,19.83
2018-05-26T03:34:35.458Z,19.27
2018-05-26T03:37:03.929Z,17.23
2018-05-26T03:39:31.381Z,18.50
2018-05-26T03:42:00.349Z,18.90
2018-05-26T03:44:27.909Z,17.93
2018-05-26T03:46:57.958Z,18.93
2018-05-26T03:49:25.461Z,19.77
2018-05-26T03:51:54.679Z,18.90
2018-05-26T03:54:33.843Z,18.90
2018-05-26T03:57:20.088Z,19.20
2018-05-26T04:13:20.782Z,17.70
2018-05-26T04:15:48.239Z,18.50
2018-05-26T04:18:15.695Z,19.13
2018-05-26T04:20:43.418Z,19.17
2018-05-26T04:23:10.942Z,19.13
2018-05-26T04:25:39.211Z,18.73
2018-05-26T04:28:07.429Z,19.33
2018-05-26T04:30:35.009Z,17.93
2018-05-26T04:33:02.463Z,18.80
2018-05-26T04:35:30.072Z,17.73
2018-05-26T04:37:57.560Z,19.80
2018-05-26T04:40:25.042Z,18.87
2018-05-26T04:42:52.514Z,20.03
2018-05-26T04:45:19.989Z,19.80
2018-05-26T04:47:48.205Z,19.07
2018-05-26T04:50:15.957Z,18.67
2018-05-26T04:52:43.398Z,18.60
2018-05-26T04:55:10.872Z,18.47
2018-05-26T04:57:38.335Z,19.13
2018-05-26T05:00:05.956Z,18.03
2018-05-26T05:02:34.175Z,18.93
2018-05-26T05:05:01.631Z,19.00
2018-05-26T05:07:29.482Z,17.60
2018-05-26T05:09:56.959Z,17.43
2018-05-26T05:12:24.860Z,17.63
2018-05-26T05:14:52.366Z,17.97
2018-05-26T05:17:19.885Z,17.90
2018-05-26T05:19:47.380Z,17.53
2018-05-26T05:22:14.924Z,16.23
2018-05-26T05:24:42.373Z,18.47
2018-05-26T05:27:10.605Z,17.30
2018-05-26T05:29:38.095Z,17.77
2018-05-26T05:32:06.376Z,18.47
2018-05-26T05:34:34.580Z,18.00
2018-05-26T05:37:02.064Z,18.03
2018-05-26T05:39:29.511Z,23.80
2018-05-26T05:41:57.018Z,355.13
2018-05-26T05:44:25.324Z,449.43
2018-05-26T05:46:52.786Z,414.57
2018-05-26T05:49:20.276Z,372.10
2018-05-26T05:51:47.759Z,35.33
2018-05-26T05:54:15.472Z,19.87
2018-05-26T05:56:42.949Z,18.70
2018-05-26T05:59:10.647Z,16.67
2018-05-26T06:01:38.150Z,17.43
2018-05-26T06:04:05.598Z,18.53
2018-05-26T06:06:33.190Z,18.33
2018-05-26T06:09:00.703Z,19.30
2018-05-26T06:11:28.153Z,19.90
2018-05-26T06:13:55.620Z,18.30
2018-05-26T06:16:23.098Z,20.03
2018-05-26T06:18:50.570Z,19.33
2018-05-26T06:21:18.951Z,18.90
2018-05-26T06:23:46.737Z,19.23
2018-05-26T06:26:14.484Z,19.83
2018-05-26T06:28:42.132Z,21.33
2018-05-26T06:31:09.714Z,19.80
2018-05-26T06:33:38.153Z,17.13
2018-05-26T06:36:10.427Z,18.20
2018-05-26T06:38:37.875Z,21.30
2018-05-26T06:41:05.796Z,16.77
2018-05-26T06:43:34.059Z,19.57
2018-05-26T06:46:01.852Z,16.97
2018-05-26T06:48:30.725Z,18.20
2018-05-26T06:50:58.544Z,20.37
2018-05-26T06:53:26.031Z,20.03
2018-05-26T06:55:54.972Z,18.87
2018-05-26T06:58:22.501Z,20.43
2018-05-26T07:00:50.852Z,15.63
2018-05-26T07:03:18.626Z,19.70
2018-05-26T07:05:46.120Z,20.20
2018-05-26T07:08:13.638Z,20.70
2018-05-26T07:10:41.355Z,19.30
2018-05-26T07:13:08.836Z,19.20
2018-05-26T07:15:36.370Z,18.83
2018-05-26T07:18:03.839Z,19.90
2018-05-26T07:20:31.385Z,17.77
2018-05-26T07:22:59.256Z,18.57
2018-05-26T07:25:26.945Z,15.87
2018-05-26T07:27:54.516Z,17.10
2018-05-26T07:30:22.040Z,17.13
2018-05-26T07:32:49.844Z,15.87
2018-05-26T07:35:17.342Z,18.53
2018-05-26T07:37:45.051Z,15.07
2018-05-26T07:40:13.340Z,17.27
2018-05-26T07:42:41.286Z,16.07
2018-05-26T07:45:09.404Z,17.80
2018-05-26T07:47:37.743Z,16.37
2018-05-26T07:50:05.227Z,15.13
2018-05-26T07:52:32.711Z,18.07
2018-05-26T07:55:00.179Z,19.30
2018-05-26T07:57:27.673Z,16.00
2018-05-26T07:59:55.310Z,14.97
2018-05-26T08:02:22.842Z,16.10
2018-05-26T08:04:50.514Z,15.57
2018-05-26T08:07:18.346Z,17.90
2018-05-26T08:09:45.947Z,15.03
2018-05-26T08:12:13.400Z,15.87
2018-05-26T08:14:41.005Z,16.67
2018-05-26T08:17:09.703Z,17.83
2018-05-26T08:19:37.792Z,16.13
2018-05-26T08:22:06.197Z,15.67
2018-05-26T08:24:33.939Z,16.43
2018-05-26T08:27:01.430Z,17.10
2018-05-26T08:29:29.109Z,16.70
2018-05-26T08:31:57.486Z,16.50
2018-05-26T08:34:25.009Z,17.93
2018-05-26T08:36:52.673Z,15.63
2018-05-26T08:39:20.357Z,17.10
2018-05-26T08:41:48.250Z,16.93
2018-05-26T08:44:16.059Z,17.90
2018-05-26T08:46:43.891Z,19.47
2018-05-26T08:49:11.331Z,19.63
2018-05-26T08:51:38.990Z,15.90
2018-05-26T08:54:06.457Z,15.60
2018-05-26T08:56:33.910Z,14.63
2018-05-26T08:59:01.623Z,15.90
2018-05-26T09:01:29.468Z,14.90
2018-05-26T09:03:57.718Z,16.20
2018-05-26T09:06:25.712Z,15.67
2018-05-26T09:08:53.222Z,15.00
2018-05-26T09:11:24.707Z,15.57
2018-05-26T09:13:52.184Z,14.53
2018-05-26T09:16:20.465Z,14.80
2018-05-26T09:18:47.992Z,14.60
2018-05-26T09:21:16.253Z,13.37
2018-05-26T09:23:43.712Z,12.50
2018-05-26T09:26:11.237Z,12.50
2018-05-26T09:28:38.722Z,13.20
2018-05-26T09:31:06.171Z,13.87
2018-05-26T09:33:35.701Z,14.03
2018-05-26T09:36:03.372Z,12.00
2018-05-26T09:38:32.403Z,13.50
2018-05-26T09:40:59.871Z,153.50
2018-05-26T09:43:27.356Z,10.80
2018-05-26T09:45:54.861Z,10.83
2018-05-26T09:48:23.292Z,10.40
2018-05-26T09:50:50.860Z,10.47
2018-05-26T09:53:18.397Z,11.33
2018-05-26T09:55:46.650Z,11.47
2018-05-26T09:58:14.090Z,9.40
2018-05-26T10:00:41.582Z,9.90
2018-05-26T10:03:09.027Z,185.20
2018-05-26T10:05:36.623Z,155.03
2018-05-26T10:08:04.138Z,16.50
2018-05-26T10:10:31.613Z,9.33
2018-05-26T10:13:01.679Z,8.67
2018-05-26T10:15:29.212Z,9.70
2018-05-26T10:17:56.695Z,8.60
2018-05-26T10:20:24.944Z,7.20
2018-05-26T10:22:52.460Z,7.60
2018-05-26T10:25:20.010Z,8.30
2018-05-26T10:27:48.304Z,30.93
2018-05-26T10:30:15.764Z,59.60
2018-05-26T10:32:43.253Z,45.00
2018-05-26T10:35:10.777Z,38.63
2018-05-26T10:37:38.394Z,11.03
2018-05-26T10:40:05.828Z,7.10
2018-05-26T10:42:33.302Z,7.10
2018-05-26T10:45:00.803Z,6.70
2018-05-26T10:47:28.371Z,7.07
2018-05-26T10:49:58.655Z,7.63
2018-05-26T10:52:26.187Z,6.57
2018-05-26T10:54:54.017Z,6.00
2018-05-26T10:57:21.679Z,6.70
2018-05-26T10:59:49.257Z,6.77
2018-05-26T11:02:16.777Z,6.67
2018-05-26T11:04:45.727Z,5.87
2018-05-26T11:07:13.508Z,6.40
2018-05-26T11:09:41.198Z,6.87
2018-05-26T11:12:08.664Z,6.53
2018-05-26T11:14:36.158Z,7.00
2018-05-26T11:17:03.634Z,6.70
2018-05-26T11:19:31.064Z,6.43
2018-05-26T11:21:58.825Z,7.23
2018-05-26T11:24:26.439Z,6.80
2018-05-26T11:26:53.922Z,6.50
2018-05-26T11:29:21.496Z,6.13
2018-05-26T11:31:49.233Z,6.47
2018-05-26T11:34:17.157Z,6.70
2018-05-26T11:36:44.625Z,6.60
2018-05-26T11:39:12.216Z,6.40
2018-05-26T11:41:40.453Z,7.57
2018-05-26T11:44:07.977Z,6.70
2018-05-26T11:46:35.434Z,6.90
2018-05-26T11:49:02.891Z,6.93
2018-05-26T11:51:30.424Z,6.40
2018-05-26T11:53:59.103Z,6.70
2018-05-26T11:56:27.311Z,6.43
2018-05-26T11:58:56.305Z,6.30
2018-05-26T12:01:23.759Z,6.20
